Somers Point, New Jersey
Current Conditions -  °F | °C
As of 3:54 AM on Thursday 23 Oct 2014 (Local Time) from KACY Reporting Station
Light Rain Light Rain  
Wind Chill: 50°   Ceiling: 1500
Heat Index: 50°   Visibility: 4mi
Dew Point: 49°   Wind: 17mph
Humidity: 96%   Direction: 330°NNW
Pressure: 29.69"   Gusts: NA
Location:  39.31°N, 74.6°W
Report Text: KACY 230754Z 33015KT 4SM -RA BR SCT009 BKN015 OVC021 10/09 A2969 RMK AO2 SLP052 P0003 T01000094
Loading
Personal Weather Stations






























Interactive Weather Map
Tropical Storm Tracking
New forecast layout! Learn more

10-Day Weather Forecast

Advertisements
Track Severe Weather on mobile